sensor_id;sensor_type;location;lat;lon;timestamp;pressure;altitude;pressure_sealevel;temperature;humidity
55934;BME280;41839;41.386;2.082;2023-04-07T00:02:02;100040.13;;;16.35;45.10
55934;BME280;41839;41.386;2.082;2023-04-07T00:04:27;100028.69;;;16.29;44.88
55934;BME280;41839;41.386;2.082;2023-04-07T00:06:53;100029.44;;;16.23;44.78
55934;BME280;41839;41.386;2.082;2023-04-07T00:09:18;100069.94;;;16.51;44.38
55934;BME280;41839;41.386;2.082;2023-04-07T00:11:44;100065.56;;;16.50;43.94
55934;BME280;41839;41.386;2.082;2023-04-07T00:14:09;100075.06;;;16.48;43.47
55934;BME280;41839;41.386;2.082;2023-04-07T00:16:35;100074.97;;;16.45;43.74
55934;BME280;41839;41.386;2.082;2023-04-07T00:19:00;100073.34;;;16.50;43.84
55934;BME280;41839;41.386;2.082;2023-04-07T00:21:26;100067.19;;;16.45;43.88
55934;BME280;41839;41.386;2.082;2023-04-07T00:23:52;100064.59;;;16.45;44.15
55934;BME280;41839;41.386;2.082;2023-04-07T00:26:17;100049.69;;;16.38;44.32
55934;BME280;41839;41.386;2.082;2023-04-07T00:28:43;100067.19;;;16.45;44.79
55934;BME280;41839;41.386;2.082;2023-04-07T00:31:08;100047.94;;;16.37;45.22
55934;BME280;41839;41.386;2.082;2023-04-07T00:33:33;100063.56;;;16.39;45.39
55934;BME280;41839;41.386;2.082;2023-04-07T00:35:59;100065.84;;;16.26;45.73
55934;BME280;41839;41.386;2.082;2023-04-07T00:38:24;100062.41;;;16.27;45.71
55934;BME280;41839;41.386;2.082;2023-04-07T00:40:56;100061.38;;;16.21;45.94
55934;BME280;41839;41.386;2.082;2023-04-07T00:43:23;100036.19;;;16.17;45.67
55934;BME280;41839;41.386;2.082;2023-04-07T00:45:50;100052.91;;;16.28;45.34
55934;BME280;41839;41.386;2.082;2023-04-07T00:48:15;100045.88;;;16.24;44.76
55934;BME280;41839;41.386;2.082;2023-04-07T00:50:41;100040.84;;;16.30;44.66
55934;BME280;41839;41.386;2.082;2023-04-07T00:53:07;100046.91;;;16.30;44.80
55934;BME280;41839;41.386;2.082;2023-04-07T00:55:32;100045.03;;;16.25;44.80
55934;BME280;41839;41.386;2.082;2023-04-07T00:57:58;100043.22;;;16.22;44.46
55934;BME280;41839;41.386;2.082;2023-04-07T01:00:24;100044.94;;;16.20;44.67
55934;BME280;41839;41.386;2.082;2023-04-07T01:02:56;100031.06;;;16.20;45.16
55934;BME280;41839;41.386;2.082;2023-04-07T01:10:36;100023.94;;;16.11;46.74
55934;BME280;41839;41.386;2.082;2023-04-07T01:13:22;100023.84;;;16.08;47.39
55934;BME280;41839;41.386;2.082;2023-04-07T01:15:51;100023.00;;;16.09;47.33
55934;BME280;41839;41.386;2.082;2023-04-07T01:18:25;99986.19;;;15.89;47.11
55934;BME280;41839;41.386;2.082;2023-04-07T01:20:54;100021.28;;;16.09;48.08
55934;BME280;41839;41.386;2.082;2023-04-07T01:26:17;100017.72;;;16.06;48.88
55934;BME280;41839;41.386;2.082;2023-04-07T01:31:47;100011.28;;;15.91;50.66
55934;BME280;41839;41.386;2.082;2023-04-07T01:34:14;100011.19;;;15.87;51.45
55934;BME280;41839;41.386;2.082;2023-04-07T01:36:42;99999.88;;;15.83;52.01
55934;BME280;41839;41.386;2.082;2023-04-07T01:39:08;99997.91;;;15.76;52.10
55934;BME280;41839;41.386;2.082;2023-04-07T01:41:37;99998.91;;;15.80;52.08
55934;BME280;41839;41.386;2.082;2023-04-07T01:44:04;99981.03;;;15.60;52.31
55934;BME280;41839;41.386;2.082;2023-04-07T01:46:30;99995.25;;;15.73;52.55
55934;BME280;41839;41.386;2.082;2023-04-07T01:48:56;99981.31;;;15.70;52.54
55934;BME280;41839;41.386;2.082;2023-04-07T01:51:24;99956.47;;;15.46;52.09
55934;BME280;41839;41.386;2.082;2023-04-07T01:53:51;99983.97;;;15.71;51.91
55934;BME280;41839;41.386;2.082;2023-04-07T01:56:17;99973.53;;;15.70;51.61
55934;BME280;41839;41.386;2.082;2023-04-07T01:58:43;99983.28;;;15.78;51.51
55934;BME280;41839;41.386;2.082;2023-04-07T02:01:08;99968.50;;;15.74;51.21
55934;BME280;41839;41.386;2.082;2023-04-07T02:03:45;99977.38;;;15.84;51.22
55934;BME280;41839;41.386;2.082;2023-04-07T02:06:14;99976.53;;;15.85;51.20
55934;BME280;41839;41.386;2.082;2023-04-07T02:08:45;99958.94;;;15.73;50.88
55934;BME280;41839;41.386;2.082;2023-04-07T02:11:14;99950.09;;;15.66;51.15
55934;BME280;41839;41.386;2.082;2023-04-07T02:13:43;99958.81;;;15.67;50.88
55934;BME280;41839;41.386;2.082;2023-04-07T02:16:10;99977.16;;;15.75;50.75
55934;BME280;41839;41.386;2.082;2023-04-07T02:18:36;99966.63;;;15.68;50.83
55934;BME280;41839;41.386;2.082;2023-04-07T02:21:03;99963.88;;;15.64;51.23
55934;BME280;41839;41.386;2.082;2023-04-07T02:23:30;99940.84;;;15.43;51.53
55934;BME280;41839;41.386;2.082;2023-04-07T02:25:56;99960.97;;;15.53;51.74
55934;BME280;41839;41.386;2.082;2023-04-07T02:28:22;99978.69;;;15.68;51.56
55934;BME280;41839;41.386;2.082;2023-04-07T02:30:48;99957.78;;;15.63;51.84
55934;BME280;41839;41.386;2.082;2023-04-07T02:33:13;99970.38;;;15.80;51.66
55934;BME280;41839;41.386;2.082;2023-04-07T02:35:39;99958.38;;;15.83;51.34
55934;BME280;41839;41.386;2.082;2023-04-07T02:38:05;99957.50;;;15.83;51.45
55934;BME280;41839;41.386;2.082;2023-04-07T02:40:30;99964.19;;;15.76;51.68
55934;BME280;41839;41.386;2.082;2023-04-07T02:42:56;99960.78;;;15.77;51.58
55934;BME280;41839;41.386;2.082;2023-04-07T02:45:21;99950.06;;;15.65;52.23
55934;BME280;41839;41.386;2.082;2023-04-07T02:47:47;99935.94;;;15.54;52.17
55934;BME280;41839;41.386;2.082;2023-04-07T02:50:12;99919.41;;;15.50;52.23
55934;BME280;41839;41.386;2.082;2023-04-07T02:52:37;99958.94;;;15.73;51.87
55934;BME280;41839;41.386;2.082;2023-04-07T02:55:03;99955.56;;;15.76;52.06
55934;BME280;41839;41.386;2.082;2023-04-07T02:57:29;99938.16;;;15.70;52.43
55934;BME280;41839;41.386;2.082;2023-04-07T02:59:54;99952.31;;;15.83;52.56
55934;BME280;41839;41.386;2.082;2023-04-07T03:02:22;99923.97;;;15.59;52.81
55934;BME280;41839;41.386;2.082;2023-04-07T03:04:50;99941.59;;;15.71;52.89
55934;BME280;41839;41.386;2.082;2023-04-07T03:07:16;99953.19;;;15.85;52.70
55934;BME280;41839;41.386;2.082;2023-04-07T03:09:41;99931.91;;;15.65;52.79
55934;BME280;41839;41.386;2.082;2023-04-07T03:12:07;99953.09;;;15.80;52.41
55934;BME280;41839;41.386;2.082;2023-04-07T03:14:32;99941.78;;;15.78;52.48
55934;BME280;41839;41.386;2.082;2023-04-07T03:16:57;99941.78;;;15.78;52.05
55934;BME280;41839;41.386;2.082;2023-04-07T03:19:23;99937.41;;;15.76;52.64
55934;BME280;41839;41.386;2.082;2023-04-07T03:21:49;99952.31;;;15.84;52.41
55934;BME280;41839;41.386;2.082;2023-04-07T03:24:14;99947.13;;;15.84;52.37
55934;BME280;41839;41.386;2.082;2023-04-07T03:26:40;99922.59;;;15.70;52.32
55934;BME280;41839;41.386;2.082;2023-04-07T03:29:06;99928.66;;;15.71;52.44
55934;BME280;41839;41.386;2.082;2023-04-07T03:31:31;99939.28;;;15.81;52.48
55934;BME280;41839;41.386;2.082;2023-04-07T03:33:56;99934.00;;;15.78;52.80
55934;BME280;41839;41.386;2.082;2023-04-07T03:36:22;99935.81;;;15.81;52.96
55934;BME280;41839;41.386;2.082;2023-04-07T03:38:48;99935.66;;;15.75;53.08
55934;BME280;41839;41.386;2.082;2023-04-07T03:41:14;99936.50;;;15.74;52.90
55934;BME280;41839;41.386;2.082;2023-04-07T03:43:40;99936.41;;;15.71;53.05
55934;BME280;41839;41.386;2.082;2023-04-07T03:46:06;99932.97;;;15.72;53.18
55934;BME280;41839;41.386;2.082;2023-04-07T03:48:31;99927.59;;;15.64;53.30
55934;BME280;41839;41.386;2.082;2023-04-07T03:50:57;99931.25;;;15.71;53.32
55934;BME280;41839;41.386;2.082;2023-04-07T03:53:22;99933.78;;;15.69;53.32
55934;BME280;41839;41.386;2.082;2023-04-07T03:55:48;99931.00;;;15.63;53.42
55934;BME280;41839;41.386;2.082;2023-04-07T03:58:13;99931.19;;;15.69;53.00
55934;BME280;41839;41.386;2.082;2023-04-07T04:00:39;99907.47;;;15.55;53.04
55934;BME280;41839;41.386;2.082;2023-04-07T04:03:05;99923.41;;;15.69;52.87
55934;BME280;41839;41.386;2.082;2023-04-07T04:05:30;99921.41;;;15.60;53.04
55934;BME280;41839;41.386;2.082;2023-04-07T04:07:56;99923.19;;;15.61;52.67
55934;BME280;41839;41.386;2.082;2023-04-07T04:10:21;99916.28;;;15.62;53.01
55934;BME280;41839;41.386;2.082;2023-04-07T04:12:47;99920.63;;;15.63;52.80
55934;BME280;41839;41.386;2.082;2023-04-07T04:15:14;99920.59;;;15.61;52.89
55934;BME280;41839;41.386;2.082;2023-04-07T04:17:39;99919.81;;;15.64;52.55
55934;BME280;41839;41.386;2.082;2023-04-07T04:20:06;99918.81;;;15.60;52.83
55934;BME280;41839;41.386;2.082;2023-04-07T04:22:32;99905.66;;;15.53;52.53
55934;BME280;41839;41.386;2.082;2023-04-07T04:24:58;99930.72;;;15.52;52.92
55934;BME280;41839;41.386;2.082;2023-04-07T04:27:24;99920.28;;;15.51;52.73
55934;BME280;41839;41.386;2.082;2023-04-07T04:29:50;99923.91;;;15.56;52.85
55934;BME280;41839;41.386;2.082;2023-04-07T04:32:16;99922.94;;;15.52;52.55
55934;BME280;41839;41.386;2.082;2023-04-07T04:34:42;99897.19;;;15.27;52.67
55934;BME280;41839;41.386;2.082;2023-04-07T04:37:07;99915.81;;;15.45;52.40
55934;BME280;41839;41.386;2.082;2023-04-07T04:39:33;99921.00;;;15.45;52.50
55934;BME280;41839;41.386;2.082;2023-04-07T04:41:58;99877.22;;;15.22;52.20
55934;BME280;41839;41.386;2.082;2023-04-07T04:44:26;99918.56;;;15.51;51.94
55934;BME280;41839;41.386;2.082;2023-04-07T04:46:52;99904.66;;;15.48;51.74
55934;BME280;41839;41.386;2.082;2023-04-07T04:49:17;99891.59;;;15.43;51.44
55934;BME280;41839;41.386;2.082;2023-04-07T04:51:44;99919.66;;;15.59;51.42
55934;BME280;41839;41.386;2.082;2023-04-07T04:54:09;99918.78;;;15.59;51.00
55934;BME280;41839;41.386;2.082;2023-04-07T04:56:35;99918.72;;;15.57;50.94
55934;BME280;41839;41.386;2.082;2023-04-07T04:59:02;99925.81;;;15.63;50.90
55934;BME280;41839;41.386;2.082;2023-04-07T05:01:27;99923.19;;;15.61;50.66
55934;BME280;41839;41.386;2.082;2023-04-07T05:03:53;99925.81;;;15.63;50.55
55934;BME280;41839;41.386;2.082;2023-04-07T05:06:18;99901.19;;;15.47;50.51
55934;BME280;41839;41.386;2.082;2023-04-07T05:08:43;99925.78;;;15.61;50.33
55934;BME280;41839;41.386;2.082;2023-04-07T05:11:10;99923.91;;;15.57;50.67
55934;BME280;41839;41.386;2.082;2023-04-07T05:13:36;99927.91;;;15.44;50.77
55934;BME280;41839;41.386;2.082;2023-04-07T05:16:01;99920.91;;;15.42;50.83
55934;BME280;41839;41.386;2.082;2023-04-07T05:18:27;99919.94;;;15.37;50.86
55934;BME280;41839;41.386;2.082;2023-04-07T05:20:52;99918.25;;;15.39;50.93
55934;BME280;41839;41.386;2.082;2023-04-07T05:23:18;99917.34;;;15.37;51.06
55934;BME280;41839;41.386;2.082;2023-04-07T05:25:43;99916.41;;;15.35;51.29
55934;BME280;41839;41.386;2.082;2023-04-07T05:28:08;99919.72;;;15.29;51.53
55934;BME280;41839;41.386;2.082;2023-04-07T05:30:34;99918.16;;;15.36;51.41
55934;BME280;41839;41.386;2.082;2023-04-07T05:33:00;99900.63;;;15.26;51.34
55934;BME280;41839;41.386;2.082;2023-04-07T05:35:25;99913.81;;;15.35;51.74
55934;BME280;41839;41.386;2.082;2023-04-07T05:37:50;99917.34;;;15.37;51.95
55934;BME280;41839;41.386;2.082;2023-04-07T05:40:16;99910.44;;;15.37;51.61
55934;BME280;41839;41.386;2.082;2023-04-07T05:42:42;99906.69;;;15.26;52.06
55934;BME280;41839;41.386;2.082;2023-04-07T05:45:08;99920.75;;;15.36;52.04
55934;BME280;41839;41.386;2.082;2023-04-07T05:47:34;99920.72;;;15.34;52.07
55934;BME280;41839;41.386;2.082;2023-04-07T05:50:00;99913.81;;;15.33;52.17
55934;BME280;41839;41.386;2.082;2023-04-07T05:52:25;99917.28;;;15.34;52.20
55934;BME280;41839;41.386;2.082;2023-04-07T05:54:51;99922.44;;;15.34;52.13
55934;BME280;41839;41.386;2.082;2023-04-07T05:57:16;99902.41;;;15.28;52.18
55934;BME280;41839;41.386;2.082;2023-04-07T05:59:42;99920.66;;;15.33;52.19
55934;BME280;41839;41.386;2.082;2023-04-07T06:02:07;99915.41;;;15.30;52.43
55934;BME280;41839;41.386;2.082;2023-04-07T06:04:33;99914.75;;;15.37;52.05
55934;BME280;41839;41.386;2.082;2023-04-07T06:07:01;99912.19;;;15.38;52.08
55934;BME280;41839;41.386;2.082;2023-04-07T06:09:27;99919.09;;;15.38;51.88
55934;BME280;41839;41.386;2.082;2023-04-07T06:11:52;99913.81;;;15.35;51.97
55934;BME280;41839;41.386;2.082;2023-04-07T06:14:18;99905.03;;;15.30;51.84
55934;BME280;41839;41.386;2.082;2023-04-07T06:16:43;99929.47;;;15.38;52.00
55934;BME280;41839;41.386;2.082;2023-04-07T06:19:09;99929.59;;;15.42;51.78
55934;BME280;41839;41.386;2.082;2023-04-07T06:21:35;99932.94;;;15.38;51.84
55934;BME280;41839;41.386;2.082;2023-04-07T06:24:02;99910.19;;;15.28;53.70
55934;BME280;41839;41.386;2.082;2023-04-07T06:26:27;99936.00;;;15.55;53.27
55934;BME280;41839;41.386;2.082;2023-04-07T06:28:53;99931.84;;;15.62;54.55
55934;BME280;41839;41.386;2.082;2023-04-07T06:31:18;99878.41;;;15.35;55.21
55934;BME280;41839;41.386;2.082;2023-04-07T06:33:44;99934.94;;;15.80;53.67
55934;BME280;41839;41.386;2.082;2023-04-07T06:36:10;99912.16;;;15.68;53.25
55934;BME280;41839;41.386;2.082;2023-04-07T06:38:37;99913.75;;;15.65;52.94
55934;BME280;41839;41.386;2.082;2023-04-07T06:41:03;99925.31;;;15.76;52.16
55934;BME280;41839;41.386;2.082;2023-04-07T06:43:29;99934.00;;;15.78;51.83
55934;BME280;41839;41.386;2.082;2023-04-07T06:45:55;99928.75;;;15.75;51.73
55934;BME280;41839;41.386;2.082;2023-04-07T06:48:21;99932.03;;;15.68;52.84
55934;BME280;41839;41.386;2.082;2023-04-07T06:50:49;99926.88;;;15.70;51.71
55934;BME280;41839;41.386;2.082;2023-04-07T06:53:16;99931.84;;;15.63;51.94
55934;BME280;41839;41.386;2.082;2023-04-07T06:55:41;99929.34;;;15.66;52.07
55934;BME280;41839;41.386;2.082;2023-04-07T06:58:07;99934.16;;;15.84;51.93
55934;BME280;41839;41.386;2.082;2023-04-07T07:00:32;99935.09;;;15.86;52.13
55934;BME280;41839;41.386;2.082;2023-04-07T07:02:58;99919.44;;;15.83;51.83
55934;BME280;41839;41.386;2.082;2023-04-07T07:05:23;99891.50;;;15.73;51.29
55934;BME280;41839;41.386;2.082;2023-04-07T07:07:49;99911.97;;;15.96;51.80
55934;BME280;41839;41.386;2.082;2023-04-07T07:10:16;99922.06;;;15.85;52.04
55934;BME280;41839;41.386;2.082;2023-04-07T07:12:41;99934.41;;;15.94;52.99
55934;BME280;41839;41.386;2.082;2023-04-07T07:15:07;99936.34;;;16.02;53.02
55934;BME280;41839;41.386;2.082;2023-04-07T07:17:33;99900.94;;;16.04;52.26
55934;BME280;41839;41.386;2.082;2023-04-07T07:19:58;99933.47;;;16.26;52.65
55934;BME280;41839;41.386;2.082;2023-04-07T07:22:24;99933.78;;;16.40;52.16
55934;BME280;41839;41.386;2.082;2023-04-07T07:24:50;99934.94;;;16.53;51.89
55934;BME280;41839;41.386;2.082;2023-04-07T07:27:15;99937.06;;;16.69;51.46
55934;BME280;41839;41.386;2.082;2023-04-07T07:29:41;99904.41;;;16.80;50.45
55934;BME280;41839;41.386;2.082;2023-04-07T07:32:06;99936.53;;;17.28;49.51
55934;BME280;41839;41.386;2.082;2023-04-07T07:34:32;99939.06;;;17.70;49.74
55934;BME280;41839;41.386;2.082;2023-04-07T07:36:58;99936.00;;;17.91;48.44
55934;BME280;41839;41.386;2.082;2023-04-07T07:39:24;99894.66;;;18.10;47.00
55934;BME280;41839;41.386;2.082;2023-04-07T07:41:50;99928.31;;;18.55;46.51
55934;BME280;41839;41.386;2.082;2023-04-07T07:44:16;99934.06;;;18.94;45.42
55934;BME280;41839;41.386;2.082;2023-04-07T07:46:41;99933.41;;;19.10;45.01
55934;BME280;41839;41.386;2.082;2023-04-07T07:49:07;99929.47;;;19.46;44.28
55934;BME280;41839;41.386;2.082;2023-04-07T07:51:32;99926.97;;;19.59;44.08
55934;BME280;41839;41.386;2.082;2023-04-07T07:53:58;99913.09;;;19.61;44.13
55934;BME280;41839;41.386;2.082;2023-04-07T07:56:23;99925.69;;;20.04;43.82
55934;BME280;41839;41.386;2.082;2023-04-07T07:58:49;99924.97;;;20.24;42.57
55934;BME280;41839;41.386;2.082;2023-04-07T08:01:15;99851.19;;;19.46;42.83
55934;BME280;41839;41.386;2.082;2023-04-07T08:03:40;99932.66;;;20.04;42.75
55934;BME280;41839;41.386;2.082;2023-04-07T08:06:06;99927.44;;;20.04;42.88
55934;BME280;41839;41.386;2.082;2023-04-07T08:08:33;99928.34;;;20.12;42.50
55934;BME280;41839;41.386;2.082;2023-04-07T08:10:59;99933.63;;;20.18;42.71
55934;BME280;41839;41.386;2.082;2023-04-07T08:13:25;99935.38;;;20.16;42.34
55934;BME280;41839;41.386;2.082;2023-04-07T08:15:50;99931.13;;;20.34;41.86
55934;BME280;41839;41.386;2.082;2023-04-07T08:18:16;99925.19;;;20.55;41.59
55934;BME280;41839;41.386;2.082;2023-04-07T08:20:42;99936.59;;;20.67;41.49
55934;BME280;41839;41.386;2.082;2023-04-07T08:23:07;99935.75;;;20.75;40.99
55934;BME280;41839;41.386;2.082;2023-04-07T08:25:33;99934.66;;;20.40;41.37
55934;BME280;41839;41.386;2.082;2023-04-07T08:27:59;99928.22;;;19.97;42.08
55934;BME280;41839;41.386;2.082;2023-04-07T08:30:25;99938.81;;;20.14;42.18
55934;BME280;41839;41.386;2.082;2023-04-07T08:32:50;99928.34;;;20.12;41.83
55934;BME280;41839;41.386;2.082;2023-04-07T08:35:16;99944.13;;;20.27;41.44
55934;BME280;41839;41.386;2.082;2023-04-07T08:37:41;99937.94;;;20.13;41.88
55934;BME280;41839;41.386;2.082;2023-04-07T08:40:08;99890.59;;;19.70;41.83
55934;BME280;41839;41.386;2.082;2023-04-07T08:42:42;99930.19;;;20.22;41.80
55934;BME280;41839;41.386;2.082;2023-04-07T08:45:08;99935.38;;;20.16;41.86
55934;BME280;41839;41.386;2.082;2023-04-07T08:47:35;99942.94;;;19.87;42.07
55934;BME280;41839;41.386;2.082;2023-04-07T08:50:05;99932.16;;;19.56;42.82
55934;BME280;41839;41.386;2.082;2023-04-07T08:52:49;99935.94;;;19.85;43.48
55934;BME280;41839;41.386;2.082;2023-04-07T08:55:15;99937.06;;;20.11;42.57
55934;BME280;41839;41.386;2.082;2023-04-07T08:57:41;99935.91;;;19.81;43.37
55934;BME280;41839;41.386;2.082;2023-04-07T09:00:08;99931.50;;;19.73;44.09
55934;BME280;41839;41.386;2.082;2023-04-07T09:02:39;99926.75;;;19.37;45.26
55934;BME280;41839;41.386;2.082;2023-04-07T09:05:06;99937.03;;;19.23;45.64
55934;BME280;41839;41.386;2.082;2023-04-07T09:07:33;99932.59;;;19.16;46.35
55934;BME280;41839;41.386;2.082;2023-04-07T09:09:59;99927.75;;;19.49;45.26
55934;BME280;41839;41.386;2.082;2023-04-07T09:12:26;99928.13;;;19.83;45.38
55934;BME280;41839;41.386;2.082;2023-04-07T09:14:52;99902.56;;;19.51;45.56
55934;BME280;41839;41.386;2.082;2023-04-07T09:17:18;99927.59;;;19.32;46.25
55934;BME280;41839;41.386;2.082;2023-04-07T09:19:43;99927.25;;;19.03;47.17
55934;BME280;41839;41.386;2.082;2023-04-07T09:22:09;99930.91;;;19.18;46.21
55934;BME280;41839;41.386;2.082;2023-04-07T09:24:39;99925.09;;;19.45;46.02
55934;BME280;41839;41.386;2.082;2023-04-07T09:27:14;99925.81;;;19.30;46.66
55934;BME280;41839;41.386;2.082;2023-04-07T09:29:42;99928.34;;;19.24;47.13
55934;BME280;41839;41.386;2.082;2023-04-07T09:32:08;99922.31;;;19.28;47.37
55934;BME280;41839;41.386;2.082;2023-04-07T09:34:36;99926.75;;;19.37;47.12
55934;BME280;41839;41.386;2.082;2023-04-07T09:37:04;99912.78;;;19.30;47.07
55934;BME280;41839;41.386;2.082;2023-04-07T09:39:29;99921.00;;;19.65;46.89
55934;BME280;41839;41.386;2.082;2023-04-07T09:41:56;99919.41;;;19.84;47.00
55934;BME280;41839;41.386;2.082;2023-04-07T09:44:22;99910.56;;;19.65;48.52
55934;BME280;41839;41.386;2.082;2023-04-07T09:49:15;99907.97;;;19.67;48.10
55934;BME280;41839;41.386;2.082;2023-04-07T09:51:57;99911.84;;;20.15;47.27
55934;BME280;41839;41.386;2.082;2023-04-07T09:54:40;99872.44;;;19.83;47.57
55934;BME280;41839;41.386;2.082;2023-04-07T09:57:10;99910.88;;;20.03;47.33
55934;BME280;41839;41.386;2.082;2023-04-07T09:59:40;99880.44;;;20.04;47.36
55934;BME280;41839;41.386;2.082;2023-04-07T10:02:09;99908.38;;;20.19;47.11
55934;BME280;41839;41.386;2.082;2023-04-07T10:04:35;99891.22;;;20.59;46.37
55934;BME280;41839;41.386;2.082;2023-04-07T10:07:01;99895.34;;;20.23;46.46
55934;BME280;41839;41.386;2.082;2023-04-07T10:09:28;99894.50;;;20.23;47.09
55934;BME280;41839;41.386;2.082;2023-04-07T10:11:57;99873.56;;;20.20;47.07
55934;BME280;41839;41.386;2.082;2023-04-07T10:14:29;99891.00;;;20.24;47.25
55934;BME280;41839;41.386;2.082;2023-04-07T10:16:55;99863.19;;;20.29;47.44
55934;BME280;41839;41.386;2.082;2023-04-07T10:19:21;99887.59;;;20.37;47.24
55934;BME280;41839;41.386;2.082;2023-04-07T10:21:50;99874.72;;;20.65;46.54
55934;BME280;41839;41.386;2.082;2023-04-07T10:27:11;99874.88;;;21.03;45.99
55934;BME280;41839;41.386;2.082;2023-04-07T10:29:40;99871.50;;;21.38;45.04
55934;BME280;41839;41.386;2.082;2023-04-07T10:32:06;99846.22;;;21.37;44.09
55934;BME280;41839;41.386;2.082;2023-04-07T10:37:20;99856.66;;;21.31;44.54
55934;BME280;41839;41.386;2.082;2023-04-07T10:39:49;99864.53;;;21.55;44.41
55934;BME280;41839;41.386;2.082;2023-04-07T10:45:07;99855.84;;;21.93;43.59
55934;BME280;41839;41.386;2.082;2023-04-07T10:50:22;99809.53;;;21.97;43.49
55934;BME280;41839;41.386;2.082;2023-04-07T10:53:03;99833.97;;;22.25;43.92
55934;BME280;41839;41.386;2.082;2023-04-07T10:55:33;99827.81;;;22.40;43.45
55934;BME280;41839;41.386;2.082;2023-04-07T11:03:22;99796.44;;;22.01;43.84
55934;BME280;41839;41.386;2.082;2023-04-07T11:05:48;99823.47;;;22.29;43.65
55934;BME280;41839;41.386;2.082;2023-04-07T11:08:13;99813.84;;;22.38;43.34
55934;BME280;41839;41.386;2.082;2023-04-07T11:10:39;99785.94;;;22.24;43.56
55934;BME280;41839;41.386;2.082;2023-04-07T11:13:06;99792.84;;;22.41;43.09
55934;BME280;41839;41.386;2.082;2023-04-07T11:15:34;99810.34;;;22.34;43.01
55934;BME280;41839;41.386;2.082;2023-04-07T11:18:16;99804.25;;;22.29;43.03
55934;BME280;41839;41.386;2.082;2023-04-07T11:20:45;99810.25;;;22.60;42.37
55934;BME280;41839;41.386;2.082;2023-04-07T11:23:12;99799.59;;;23.01;41.46
55934;BME280;41839;41.386;2.082;2023-04-07T11:25:39;99802.88;;;23.31;40.62
55934;BME280;41839;41.386;2.082;2023-04-07T11:28:09;99803.09;;;22.88;41.08
55934;BME280;41839;41.386;2.082;2023-04-07T11:30:34;99807.75;;;22.29;42.53
55934;BME280;41839;41.386;2.082;2023-04-07T11:33:00;99782.53;;;21.75;43.39
55934;BME280;41839;41.386;2.082;2023-04-07T11:35:26;99795.63;;;21.59;43.75
55934;BME280;41839;41.386;2.082;2023-04-07T11:37:59;99785.97;;;21.09;44.72
55934;BME280;41839;41.386;2.082;2023-04-07T11:40:35;99781.53;;;20.73;45.71
55934;BME280;41839;41.386;2.082;2023-04-07T11:43:02;99787.63;;;20.77;45.74
55934;BME280;41839;41.386;2.082;2023-04-07T11:45:39;99784.97;;;20.57;45.73
55934;BME280;41839;41.386;2.082;2023-04-07T11:48:05;99754.44;;;20.53;45.50
55934;BME280;41839;41.386;2.082;2023-04-07T11:50:49;99776.28;;;20.68;45.87
55934;BME280;41839;41.386;2.082;2023-04-07T11:53:24;99777.84;;;20.30;46.43
55934;BME280;41839;41.386;2.082;2023-04-07T11:56:07;99751.00;;;20.58;45.49
55934;BME280;41839;41.386;2.082;2023-04-07T11:58:35;99728.34;;;20.62;44.17
55934;BME280;41839;41.386;2.082;2023-04-07T12:01:04;99758.94;;;21.07;43.89
55934;BME280;41839;41.386;2.082;2023-04-07T12:03:35;99761.44;;;20.61;45.17
55934;BME280;41839;41.386;2.082;2023-04-07T12:06:04;99760.50;;;20.45;44.39
55934;BME280;41839;41.386;2.082;2023-04-07T12:08:39;99728.28;;;20.45;44.17
55934;BME280;41839;41.386;2.082;2023-04-07T12:11:05;99756.31;;;20.87;43.20
55934;BME280;41839;41.386;2.082;2023-04-07T12:13:32;99724.63;;;20.06;44.25
55934;BME280;41839;41.386;2.082;2023-04-07T12:15:59;99749.97;;;20.22;43.44
55934;BME280;41839;41.386;2.082;2023-04-07T12:18:26;99750.66;;;19.89;44.07
55934;BME280;41839;41.386;2.082;2023-04-07T12:20:52;99742.94;;;20.08;43.67
55934;BME280;41839;41.386;2.082;2023-04-07T12:23:17;99747.31;;;20.18;43.70
55934;BME280;41839;41.386;2.082;2023-04-07T12:25:43;99749.88;;;20.07;44.08
55934;BME280;41839;41.386;2.082;2023-04-07T12:28:08;99749.94;;;20.21;43.75
55934;BME280;41839;41.386;2.082;2023-04-07T12:30:35;99751.63;;;20.08;44.48
55934;BME280;41839;41.386;2.082;2023-04-07T12:33:00;99745.41;;;19.88;46.13
55934;BME280;41839;41.386;2.082;2023-04-07T12:35:28;99748.91;;;19.91;45.88
55934;BME280;41839;41.386;2.082;2023-04-07T12:37:53;99735.09;;;20.15;44.90
55934;BME280;41839;41.386;2.082;2023-04-07T12:40:19;99737.84;;;20.43;45.00
55934;BME280;41839;41.386;2.082;2023-04-07T12:42:44;99729.84;;;20.04;44.07
55934;BME280;41839;41.386;2.082;2023-04-07T12:45:10;99721.13;;;19.98;44.85
55934;BME280;41839;41.386;2.082;2023-04-07T12:47:35;99721.94;;;19.91;44.81
55934;BME280;41839;41.386;2.082;2023-04-07T12:50:01;99708.94;;;20.01;45.08
55934;BME280;41839;41.386;2.082;2023-04-07T12:52:27;99715.91;;;20.06;45.08
55934;BME280;41839;41.386;2.082;2023-04-07T12:54:52;99717.72;;;20.20;44.59
55934;BME280;41839;41.386;2.082;2023-04-07T12:57:18;99703.78;;;20.11;44.21
55934;BME280;41839;41.386;2.082;2023-04-07T12:59:43;99706.41;;;20.20;44.56
55934;BME280;41839;41.386;2.082;2023-04-07T13:02:09;99701.06;;;19.94;43.32
55934;BME280;41839;41.386;2.082;2023-04-07T13:04:38;99674.13;;;19.95;43.83
55934;BME280;41839;41.386;2.082;2023-04-07T13:07:07;99692.63;;;20.58;43.76
55934;BME280;41839;41.386;2.082;2023-04-07T13:09:34;99690.81;;;20.46;44.35
55934;BME280;41839;41.386;2.082;2023-04-07T13:11:59;99662.72;;;19.79;45.32
55934;BME280;41839;41.386;2.082;2023-04-07T13:14:25;99680.88;;;19.61;46.63
55934;BME280;41839;41.386;2.082;2023-04-07T13:16:50;99674.84;;;19.72;46.72
55934;BME280;41839;41.386;2.082;2023-04-07T13:19:16;99682.78;;;19.86;46.31
55934;BME280;41839;41.386;2.082;2023-04-07T13:21:41;99667.06;;;19.77;47.02
55934;BME280;41839;41.386;2.082;2023-04-07T13:24:07;99680.22;;;20.03;46.80
55934;BME280;41839;41.386;2.082;2023-04-07T13:26:32;99640.84;;;19.63;47.10
55934;BME280;41839;41.386;2.082;2023-04-07T13:28:57;99668.00;;;19.94;47.30